Time;durP1;ratioP1;P1;durP2;ratioP2;P2;SDS_P1;SDS_P2;PMS_P1;PMS_P2;Temp;Humidity;BMP_temperature;BMP_pressure;BME280_temperature;BME280_humidity;BME280_pressure;Samples;Min_cycle;Max_cycle;Signal;HPM_P1;HPM_P2
2021/05/22 00:00:52;;;;;;;0.10;0.10;;;13.20;66.30;;;;;;5075034;28;20044;-71
2021/05/22 00:03:18;;;;;;;0.00;0.00;;;13.10;66.10;;;;;;5075167;28;20557;-72
2021/05/22 00:05:45;;;;;;;0.00;0.00;;;13.10;66.20;;;;;;5075025;28;20052;-71
2021/05/22 00:08:11;;;;;;;0.00;0.00;;;13.10;66.20;;;;;;5075115;28;20052;-71
2021/05/22 00:10:37;;;;;;;0.00;0.00;;;13.10;66.20;;;;;;5075150;28;20055;-72
2021/05/22 00:13:04;;;;;;;0.00;0.00;;;13.10;66.30;;;;;;5074553;28;20056;-71
2021/05/22 00:15:30;;;;;;;0.00;0.00;;;13.10;66.20;;;;;;5074672;28;20051;-71
2021/05/22 00:17:57;;;;;;;0.00;0.00;;;13.10;66.20;;;;;;5056800;28;20543;-72
2021/05/22 00:20:23;;;;;;;0.00;0.00;;;13.10;66.40;;;;;;5060727;28;20085;-71
2021/05/22 00:22:49;;;;;;;0.00;0.00;;;13.10;66.40;;;;;;5094650;28;20457;-71
2021/05/22 00:25:16;;;;;;;0.00;0.00;;;13.10;66.40;;;;;;5095187;28;20080;-72
2021/05/22 00:27:42;;;;;;;0.00;0.00;;;13.10;66.50;;;;;;5095271;28;20059;-72
2021/05/22 00:30:10;;;;;;;0.00;0.00;;;13.00;66.50;;;;;;5094869;28;20135;-72
2021/05/22 00:32:37;;;;;;;0.00;0.00;;;13.00;66.50;;;;;;5094642;28;20048;-71
2021/05/22 00:35:05;;;;;;;0.00;0.00;;;13.00;67.50;;;;;;5095121;28;20048;-71
2021/05/22 00:37:31;;;;;;;0.00;0.00;;;13.00;66.50;;;;;;5075892;28;20451;-71
2021/05/22 00:39:57;;;;;;;0.00;0.00;;;13.00;66.60;;;;;;5074764;28;20048;-71
2021/05/22 00:42:24;;;;;;;0.00;0.00;;;13.00;66.50;;;;;;5074202;28;20510;-71
2021/05/22 00:45:11;;;;;;;0.00;0.00;;;13.00;66.50;;;;;;5074347;28;20127;-71
2021/05/22 00:47:46;;;;;;;0.00;0.00;;;13.00;66.50;;;;;;5074358;28;20056;-71
2021/05/22 00:50:17;;;;;;;0.00;0.00;;;13.10;66.60;;;;;;5074426;28;20056;-71
2021/05/22 00:52:43;;;;;;;0.00;0.00;;;13.00;66.50;;;;;;5073020;28;20530;-71
2021/05/22 00:55:11;;;;;;;0.00;0.00;;;13.00;66.60;;;;;;5074368;28;20044;-73
2021/05/22 00:57:40;;;;;;;0.00;0.00;;;13.00;66.50;;;;;;5074222;28;20133;-72
2021/05/22 01:00:12;;;;;;;0.00;0.00;;;13.00;67.50;;;;;;5074136;28;20048;-72
2021/05/22 01:02:41;;;;;;;0.00;0.00;;;13.10;66.60;;;;;;5074075;28;20557;-71
2021/05/22 01:05:08;;;;;;;0.00;0.00;;;13.10;66.60;;;;;;5074030;28;20087;-71
2021/05/22 01:07:35;;;;;;;0.00;0.00;;;13.10;66.50;;;;;;5073796;28;20048;-71
2021/05/22 01:10:04;;;;;;;0.00;0.00;;;13.10;66.50;;;;;;5073877;28;20086;-71
2021/05/22 01:12:33;;;;;;;0.00;0.00;;;13.10;66.50;;;;;;5072654;28;20067;-71
2021/05/22 01:15:07;;;;;;;0.00;0.00;;;13.10;66.60;;;;;;5073948;28;20044;-71
2021/05/22 01:17:39;;;;;;;0.00;0.00;;;13.00;66.50;;;;;;5073427;28;20130;-71
2021/05/22 01:20:19;;;;;;;0.00;0.00;;;13.00;66.60;;;;;;5075342;28;20053;-71
2021/05/22 01:22:50;;;;;;;0.00;0.00;;;13.10;66.50;;;;;;5093901;28;20133;-71
2021/05/22 01:25:33;;;;;;;0.00;0.00;;;13.00;66.50;;;;;;5093965;28;20127;-72
2021/05/22 01:28:02;;;;;;;0.03;0.03;;;13.00;66.50;;;;;;5093823;28;20056;-71
2021/05/22 01:30:28;;;;;;;0.00;0.00;;;13.00;66.50;;;;;;5093766;28;20622;-71
2021/05/22 01:32:55;;;;;;;0.00;0.00;;;13.00;66.80;;;;;;5093793;28;20056;-72
2021/05/22 01:35:22;;;;;;;0.00;0.00;;;12.90;66.70;;;;;;5092175;28;20388;-71
2021/05/22 01:37:48;;;;;;;0.00;0.00;;;12.90;66.70;;;;;;5093427;28;20490;-71
2021/05/22 01:40:15;;;;;;;0.00;0.00;;;12.90;66.50;;;;;;5091381;28;20051;-71
2021/05/22 01:42:42;;;;;;;0.00;0.00;;;12.90;66.50;;;;;;5072322;28;20082;-72
2021/05/22 01:45:29;;;;;;;0.00;0.00;;;12.80;66.40;;;;;;5073314;28;20056;-72
2021/05/22 01:47:57;;;;;;;0.00;0.00;;;12.80;66.40;;;;;;5073189;28;20048;-71
2021/05/22 01:50:26;;;;;;;0.00;0.00;;;12.80;66.40;;;;;;5073008;28;20511;-71
2021/05/22 01:52:57;;;;;;;0.00;0.00;;;12.80;66.60;;;;;;5073109;28;20063;-71
2021/05/22 01:55:25;;;;;;;0.00;0.00;;;12.80;66.60;;;;;;5072848;28;20094;-72
2021/05/22 01:57:51;;;;;;;0.00;0.00;;;12.80;66.70;;;;;;5072877;28;20048;-71
2021/05/22 02:00:18;;;;;;;0.00;0.00;;;12.80;66.90;;;;;;5072604;28;20048;-71
2021/05/22 02:03:10;;;;;;;0.00;0.00;;;12.80;67.00;;;;;;5072966;28;20131;-71
2021/05/22 02:05:38;;;;;;;0.00;0.00;;;12.70;66.90;;;;;;5072784;28;20071;-71
2021/05/22 02:08:16;;;;;;;0.00;0.00;;;12.70;67.00;;;;;;5072706;28;20103;-71
2021/05/22 02:10:42;;;;;;;0.00;0.00;;;12.70;66.90;;;;;;5072464;28;20045;-71
2021/05/22 02:13:09;;;;;;;0.00;0.00;;;12.70;67.00;;;;;;5072596;28;20135;-71
2021/05/22 02:15:38;;;;;;;0.00;0.00;;;12.70;67.00;;;;;;5072592;28;20103;-72
2021/05/22 02:18:07;;;;;;;0.00;0.00;;;12.60;66.90;;;;;;5072535;28;20500;-72
2021/05/22 02:20:34;;;;;;;0.00;0.00;;;12.60;67.00;;;;;;5077917;28;20036;-72
2021/05/22 02:23:02;;;;;;;0.00;0.00;;;12.60;67.00;;;;;;5092951;28;20044;-71
2021/05/22 02:25:28;;;;;;;0.00;0.00;;;12.60;67.00;;;;;;5092377;28;20056;-72
2021/05/22 02:27:58;;;;;;;0.08;0.08;;;12.60;67.00;;;;;;5093036;28;20105;-71
2021/05/22 02:30:26;;;;;;;0.00;0.00;;;12.60;67.10;;;;;;5074699;28;20122;-72
2021/05/22 02:32:53;;;;;;;0.00;0.00;;;12.60;67.00;;;;;;5072320;28;20057;-71
2021/05/22 02:35:20;;;;;;;0.00;0.00;;;12.60;67.00;;;;;;5072285;28;20045;-71
2021/05/22 02:37:52;;;;;;;0.00;0.00;;;12.60;67.00;;;;;;5072086;28;20141;-71
2021/05/22 02:40:25;;;;;;;0.00;0.00;;;12.60;67.00;;;;;;5071969;28;20051;-71
2021/05/22 02:43:01;;;;;;;0.00;0.00;;;12.60;67.10;;;;;;5072166;28;20087;-71
2021/05/22 02:45:29;;;;;;;0.00;0.00;;;12.60;67.10;;;;;;5072302;28;20044;-71
2021/05/22 02:47:58;;;;;;;0.00;0.00;;;12.60;67.20;;;;;;5072417;28;20052;-71
2021/05/22 02:50:27;;;;;;;0.10;0.10;;;12.50;67.10;;;;;;5072139;28;20059;-71
2021/05/22 02:52:55;;;;;;;0.00;0.00;;;12.50;67.10;;;;;;5072128;28;20502;-71
2021/05/22 02:55:22;;;;;;;0.00;0.00;;;12.50;67.10;;;;;;5070588;28;20044;-71
2021/05/22 02:57:49;;;;;;;0.00;0.00;;;12.50;67.10;;;;;;5072324;28;20045;-72
2021/05/22 03:00:16;;;;;;;0.00;0.00;;;12.50;67.10;;;;;;5072259;28;20174;-71
2021/05/22 03:02:43;;;;;;;0.05;0.05;;;12.50;67.10;;;;;;5072163;28;20044;-72
2021/05/22 03:05:10;;;;;;;0.10;0.10;;;12.50;67.20;;;;;;5071964;28;20415;-72
2021/05/22 03:07:36;;;;;;;0.00;0.00;;;12.50;67.30;;;;;;5071967;28;20109;-72
2021/05/22 03:10:04;;;;;;;0.00;0.00;;;12.50;67.40;;;;;;5053397;28;20049;-72
2021/05/22 03:12:33;;;;;;;0.00;0.00;;;12.40;67.60;;;;;;5071627;28;20429;-71
2021/05/22 03:14:59;;;;;;;0.00;0.00;;;12.40;67.60;;;;;;5071769;28;20044;-71
2021/05/22 03:17:26;;;;;;;0.00;0.00;;;12.40;67.70;;;;;;5071397;28;20090;-72
2021/05/22 03:19:52;;;;;;;0.00;0.00;;;12.40;67.80;;;;;;5071858;28;20048;-72
2021/05/22 03:22:19;;;;;;;0.00;0.00;;;12.40;67.90;;;;;;5091746;28;20418;-71
2021/05/22 03:24:45;;;;;;;0.00;0.00;;;12.40;68.10;;;;;;5091741;28;20479;-71
2021/05/22 03:27:12;;;;;;;0.00;0.00;;;12.40;68.30;;;;;;5092108;28;20052;-71
2021/05/22 03:29:38;;;;;;;0.00;0.00;;;12.40;68.50;;;;;;5081077;28;20063;-71
2021/05/22 03:32:04;;;;;;;0.00;0.00;;;12.40;68.70;;;;;;5071798;28;20514;-71
2021/05/22 03:34:31;;;;;;;0.00;0.00;;;12.30;68.60;;;;;;5071921;28;20049;-71
2021/05/22 03:36:58;;;;;;;0.00;0.00;;;12.40;68.80;;;;;;5072040;28;20133;-71
2021/05/22 03:39:24;;;;;;;0.00;0.00;;;12.30;68.90;;;;;;5071188;28;20045;-71
2021/05/22 03:41:50;;;;;;;0.00;0.00;;;12.30;69.00;;;;;;5071242;28;20044;-72
2021/05/22 03:44:17;;;;;;;0.00;0.00;;;12.40;69.10;;;;;;5070911;28;20048;-72
2021/05/22 03:46:43;;;;;;;0.00;0.00;;;12.30;69.20;;;;;;5071569;28;20107;-71
2021/05/22 03:49:10;;;;;;;0.00;0.00;;;12.30;69.40;;;;;;5071718;28;20120;-71
2021/05/22 03:51:36;;;;;;;0.00;0.00;;;12.30;69.60;;;;;;5071281;28;20480;-71
2021/05/22 03:54:03;;;;;;;0.00;0.00;;;12.30;69.60;;;;;;5071810;28;20090;-71
2021/05/22 03:56:30;;;;;;;0.00;0.00;;;12.30;69.60;;;;;;5071383;28;20040;-71
2021/05/22 03:58:56;;;;;;;0.00;0.00;;;12.30;70.00;;;;;;5072377;28;20094;-71
2021/05/22 04:01:22;;;;;;;0.00;0.00;;;12.20;69.90;;;;;;5072215;28;20049;-71
2021/05/22 04:03:49;;;;;;;0.10;0.10;;;12.20;70.10;;;;;;5072362;28;20444;-71
2021/05/22 04:06:15;;;;;;;0.00;0.00;;;12.20;70.10;;;;;;5072293;28;20084;-71
2021/05/22 04:08:42;;;;;;;0.00;0.00;;;12.20;70.10;;;;;;5075713;28;20395;-71
2021/05/22 04:11:08;;;;;;;0.00;0.00;;;12.20;70.30;;;;;;5075104;28;20568;-71
2021/05/22 04:13:35;;;;;;;0.00;0.00;;;12.20;70.60;;;;;;5075680;28;20499;-71
2021/05/22 04:16:01;;;;;;;0.00;0.00;;;12.10;70.60;;;;;;5075415;28;20080;-71
2021/05/22 04:18:27;;;;;;;0.00;0.00;;;12.10;70.60;;;;;;5075809;28;20124;-72
2021/05/22 04:20:54;;;;;;;0.00;0.00;;;12.10;70.70;;;;;;5083335;28;20077;-71
2021/05/22 04:23:20;;;;;;;0.00;0.00;;;12.20;70.70;;;;;;5096082;28;20187;-71
2021/05/22 04:25:46;;;;;;;0.00;0.00;;;12.20;70.90;;;;;;5091480;28;20137;-71
2021/05/22 04:28:13;;;;;;;0.00;0.00;;;12.10;70.90;;;;;;5074925;28;20086;-72
2021/05/22 04:30:39;;;;;;;0.00;0.00;;;12.10;70.90;;;;;;5074582;28;20144;-71
2021/05/22 04:33:06;;;;;;;0.00;0.00;;;12.10;71.20;;;;;;5074981;28;20407;-71
2021/05/22 04:35:33;;;;;;;0.00;0.00;;;12.10;71.30;;;;;;5074156;28;20059;-71
2021/05/22 04:37:59;;;;;;;0.00;0.00;;;12.10;71.20;;;;;;5074331;28;20055;-71
2021/05/22 04:40:26;;;;;;;0.00;0.00;;;12.10;71.40;;;;;;5074674;28;20131;-71
2021/05/22 04:42:52;;;;;;;0.10;0.10;;;12.10;71.30;;;;;;5074284;28;20048;-72
2021/05/22 04:45:18;;;;;;;0.00;0.00;;;12.10;71.30;;;;;;5074665;28;20142;-71
2021/05/22 04:47:45;;;;;;;0.00;0.00;;;12.10;71.50;;;;;;5074605;28;20098;-71
2021/05/22 04:50:12;;;;;;;0.00;0.00;;;12.10;71.50;;;;;;5074393;28;20044;-72
2021/05/22 04:52:39;;;;;;;0.00;0.00;;;12.10;71.60;;;;;;5073923;28;20405;-71
2021/05/22 04:55:07;;;;;;;0.00;0.00;;;12.10;71.60;;;;;;5074217;28;20041;-72
2021/05/22 04:57:33;;;;;;;0.00;0.00;;;12.10;71.60;;;;;;5074289;28;20052;-72
2021/05/22 04:59:59;;;;;;;0.00;0.00;;;12.10;71.70;;;;;;5074366;28;20072;-71
2021/05/22 05:02:26;;;;;;;0.00;0.00;;;12.10;71.90;;;;;;5074298;28;20044;-72
2021/05/22 05:04:52;;;;;;;0.00;0.00;;;12.00;72.80;;;;;;5079605;28;20439;-72
2021/05/22 05:07:19;;;;;;;0.00;0.00;;;12.00;71.80;;;;;;5084229;28;20085;-72
2021/05/22 05:09:46;;;;;;;0.00;0.00;;;12.00;72.10;;;;;;5078963;28;20049;-72
2021/05/22 05:12:13;;;;;;;0.00;0.00;;;12.00;72.20;;;;;;5073772;28;20056;-72
2021/05/22 05:14:40;;;;;;;0.00;0.00;;;12.00;72.30;;;;;;5073884;28;20081;-72
2021/05/22 05:17:06;;;;;;;0.00;0.00;;;12.00;72.20;;;;;;5073739;28;20396;-72
2021/05/22 05:19:33;;;;;;;0.00;0.00;;;12.00;72.40;;;;;;5073161;28;20088;-72
2021/05/22 05:21:59;;;;;;;0.00;0.00;;;12.00;72.30;;;;;;5090781;28;20048;-73
2021/05/22 05:24:26;;;;;;;0.00;0.00;;;12.00;72.20;;;;;;5094032;28;20591;-72
2021/05/22 05:26:53;;;;;;;0.00;0.00;;;12.00;72.20;;;;;;5093693;28;20094;-72
2021/05/22 05:29:19;;;;;;;0.00;0.00;;;12.00;72.20;;;;;;5093830;28;20500;-71
2021/05/22 05:31:46;;;;;;;0.00;0.00;;;12.00;72.20;;;;;;5093835;28;20047;-72
2021/05/22 05:34:12;;;;;;;0.00;0.00;;;12.00;72.40;;;;;;5084421;28;20095;-72
2021/05/22 05:36:39;;;;;;;0.00;0.00;;;12.00;72.40;;;;;;5083720;28;20043;-72
2021/05/22 05:39:06;;;;;;;0.00;0.00;;;12.00;72.30;;;;;;5083698;28;20056;-72
2021/05/22 05:41:32;;;;;;;0.00;0.00;;;12.00;72.60;;;;;;5082439;28;20052;-71
2021/05/22 05:43:58;;;;;;;0.00;0.00;;;12.00;72.70;;;;;;5083636;28;20127;-72
2021/05/22 05:46:25;;;;;;;0.00;0.00;;;12.00;72.50;;;;;;5067111;28;20047;-72
2021/05/22 05:48:51;;;;;;;0.00;0.00;;;12.00;72.50;;;;;;5072331;28;20533;-72
2021/05/22 05:51:18;;;;;;;0.00;0.00;;;12.00;72.30;;;;;;5082329;28;20127;-72
2021/05/22 05:53:44;;;;;;;0.08;0.08;;;12.10;72.40;;;;;;5082760;28;20479;-72
2021/05/22 05:56:10;;;;;;;0.00;0.00;;;12.10;72.30;;;;;;5083649;28;20116;-72
2021/05/22 05:58:37;;;;;;;0.00;0.00;;;12.10;72.10;;;;;;5081993;28;20044;-71
2021/05/22 06:01:07;;;;;;;0.00;0.00;;;12.10;72.00;;;;;;5082447;28;20076;-72
2021/05/22 06:03:33;;;;;;;0.00;0.00;;;12.20;72.10;;;;;;5087192;28;20048;-71
2021/05/22 06:06:00;;;;;;;0.00;0.00;;;12.20;72.00;;;;;;5090504;28;20067;-74
2021/05/22 06:08:27;;;;;;;0.00;0.00;;;12.20;71.90;;;;;;5084238;28;20079;-71
2021/05/22 06:10:54;;;;;;;0.00;0.00;;;12.20;71.90;;;;;;5072666;28;20439;-71
2021/05/22 06:13:32;;;;;;;0.00;0.00;;;12.20;71.90;;;;;;5052812;28;20178;-71
2021/05/22 06:18:30;;;;;;;0.00;0.00;;;12.30;71.90;;;;;;5052626;28;20500;-71
2021/05/22 06:20:57;;;;;;;0.00;0.00;;;12.40;71.90;;;;;;5061077;28;20045;-71
2021/05/22 06:23:23;;;;;;;0.00;0.00;;;12.50;71.80;;;;;;5067844;28;20052;-73
2021/05/22 06:25:50;;;;;;;0.00;0.00;;;12.50;71.60;;;;;;5052864;28;20071;-74
2021/05/22 06:28:17;;;;;;;0.00;0.00;;;12.50;71.70;;;;;;5052860;28;20519;-73
2021/05/22 06:30:44;;;;;;;0.00;0.00;;;12.60;71.80;;;;;;5052111;28;20056;-74
2021/05/22 06:33:10;;;;;;;0.00;0.00;;;12.60;71.60;;;;;;5052267;28;20084;-74
2021/05/22 06:35:37;;;;;;;0.00;0.00;;;12.60;71.60;;;;;;5052404;28;20091;-74
2021/05/22 06:38:03;;;;;;;0.00;0.00;;;12.70;71.40;;;;;;5052226;28;20500;-74
2021/05/22 06:40:30;;;;;;;0.00;0.00;;;12.80;71.30;;;;;;5052686;28;20045;-74
2021/05/22 06:42:56;;;;;;;0.00;0.00;;;12.80;71.10;;;;;;5052085;28;20048;-74
2021/05/22 06:45:25;;;;;;;0.00;0.00;;;12.90;70.80;;;;;;5052117;28;20643;-74
2021/05/22 06:47:52;;;;;;;0.00;0.00;;;12.90;70.40;;;;;;5051995;28;20136;-74
2021/05/22 06:50:19;;;;;;;0.00;0.00;;;12.90;70.40;;;;;;5052507;28;20049;-73
2021/05/22 06:52:46;;;;;;;0.00;0.00;;;12.90;70.20;;;;;;5051936;28;20416;-73
2021/05/22 06:55:12;;;;;;;0.00;0.00;;;13.00;70.00;;;;;;5051923;28;20174;-72
2021/05/22 06:57:39;;;;;;;0.00;0.00;;;13.10;69.90;;;;;;5052104;28;20485;-72
2021/05/22 07:00:06;;;;;;;0.00;0.00;;;13.10;69.80;;;;;;5051992;28;20072;-72
2021/05/22 07:02:33;;;;;;;0.00;0.00;;;13.30;69.00;;;;;;5051906;28;20045;-72
2021/05/22 07:04:59;;;;;;;0.00;0.00;;;13.30;68.70;;;;;;5052061;28;20049;-72
2021/05/22 07:07:26;;;;;;;0.00;0.00;;;13.30;68.40;;;;;;5051737;28;20516;-74
2021/05/22 07:09:52;;;;;;;0.00;0.00;;;13.40;68.30;;;;;;5051749;28;20432;-73
2021/05/22 07:12:19;;;;;;;0.00;0.00;;;13.40;68.20;;;;;;5063329;28;20632;-74
2021/05/22 07:14:45;;;;;;;0.00;0.00;;;13.50;68.20;;;;;;5071324;28;20440;-73
2021/05/22 07:17:12;;;;;;;0.00;0.00;;;13.60;68.10;;;;;;5066697;28;20056;-73
2021/05/22 07:19:38;;;;;;;0.00;0.00;;;13.70;67.80;;;;;;5061257;28;20049;-72
2021/05/22 07:22:04;;;;;;;0.00;0.00;;;13.80;67.20;;;;;;5071854;28;20557;-72
2021/05/22 07:24:31;;;;;;;0.00;0.00;;;13.90;66.80;;;;;;5056613;28;20049;-72
2021/05/22 07:26:57;;;;;;;0.00;0.00;;;14.00;65.70;;;;;;5066853;28;20093;-73
2021/05/22 07:29:25;;;;;;;0.00;0.00;;;14.10;64.50;;;;;;5071503;28;20048;-73
2021/05/22 07:31:52;;;;;;;0.00;0.00;;;14.20;63.00;;;;;;5071016;28;20056;-74
2021/05/22 07:34:18;;;;;;;0.00;0.00;;;14.30;62.00;;;;;;5071557;28;20084;-74
2021/05/22 07:36:44;;;;;;;0.00;0.00;;;14.40;62.30;;;;;;5059492;28;20045;-74
2021/05/22 07:39:13;;;;;;;0.00;0.00;;;14.50;62.20;;;;;;5050479;28;20057;-74
2021/05/22 07:41:41;;;;;;;0.00;0.00;;;14.70;62.10;;;;;;5052098;28;20053;-74
2021/05/22 07:44:08;;;;;;;0.00;0.00;;;14.80;60.70;;;;;;5053185;28;20424;-75
2021/05/22 07:46:35;;;;;;;0.00;0.00;;;15.00;61.00;;;;;;5053492;28;20088;-74
2021/05/22 07:49:02;;;;;;;0.00;0.00;;;15.20;60.80;;;;;;5053547;28;20052;-74
2021/05/22 07:51:28;;;;;;;0.00;0.00;;;15.30;59.10;;;;;;5053868;28;20068;-74
2021/05/22 07:53:55;;;;;;;0.00;0.00;;;15.30;59.00;;;;;;5053790;28;20573;-74
2021/05/22 07:56:21;;;;;;;0.00;0.00;;;15.20;58.10;;;;;;5053779;28;20127;-74
2021/05/22 07:58:47;;;;;;;0.00;0.00;;;15.10;58.00;;;;;;5054838;28;20056;-74
2021/05/22 08:01:14;;;;;;;0.00;0.00;;;15.00;58.60;;;;;;5055149;28;20048;-75
2021/05/22 08:03:40;;;;;;;0.00;0.00;;;14.90;59.10;;;;;;5055524;28;20053;-74
2021/05/22 08:06:07;;;;;;;0.00;0.00;;;14.90;59.30;;;;;;5054560;28;20078;-74
2021/05/22 08:08:33;;;;;;;0.00;0.00;;;14.90;58.30;;;;;;5055126;28;20175;-74
2021/05/22 08:11:00;;;;;;;0.00;0.00;;;14.80;58.00;;;;;;5055538;28;20447;-74
2021/05/22 08:13:28;;;;;;;0.00;0.00;;;14.80;57.70;;;;;;5075013;28;20503;-74
2021/05/22 08:15:58;;;;;;;0.00;0.00;;;14.80;58.30;;;;;;5074743;28;20044;-74
2021/05/22 08:18:24;;;;;;;0.00;0.00;;;15.00;58.60;;;;;;5074871;28;20435;-74
2021/05/22 08:20:53;;;;;;;0.00;0.00;;;15.10;58.30;;;;;;5074377;28;20040;-75
2021/05/22 08:23:20;;;;;;;0.00;0.00;;;15.20;57.80;;;;;;5074920;28;20052;-74
2021/05/22 08:25:47;;;;;;;0.00;0.00;;;15.20;57.50;;;;;;5075176;28;20141;-74
2021/05/22 08:28:20;;;;;;;0.00;0.00;;;15.30;57.60;;;;;;5074854;28;20076;-74
2021/05/22 08:30:48;;;;;;;0.00;0.00;;;15.50;57.50;;;;;;5074390;28;20499;-74
2021/05/22 08:33:15;;;;;;;0.00;0.00;;;15.80;57.20;;;;;;5074634;28;20135;-74
2021/05/22 08:35:42;;;;;;;0.00;0.00;;;16.00;55.90;;;;;;5074563;28;20052;-74
2021/05/22 08:38:08;;;;;;;0.00;0.00;;;16.30;56.00;;;;;;5074525;28;20064;-75
2021/05/22 08:40:35;;;;;;;0.00;0.00;;;16.60;55.90;;;;;;5074783;28;20119;-75
2021/05/22 08:43:02;;;;;;;0.00;0.00;;;17.00;55.20;;;;;;5074110;28;20500;-74
2021/05/22 08:45:30;;;;;;;0.00;0.00;;;17.30;54.60;;;;;;5074398;28;20511;-75
2021/05/22 08:47:57;;;;;;;0.00;0.00;;;17.60;54.10;;;;;;5074361;28;20048;-74
2021/05/22 08:50:24;;;;;;;0.00;0.00;;;17.90;53.20;;;;;;5073466;28;20049;-75
2021/05/22 08:52:54;;;;;;;0.00;0.00;;;18.10;52.00;;;;;;5072720;28;20091;-74
2021/05/22 08:55:22;;;;;;;0.00;0.00;;;18.20;51.00;;;;;;5074214;28;20095;-74
2021/05/22 08:57:49;;;;;;;0.00;0.00;;;18.30;49.20;;;;;;5074069;28;20072;-75
2021/05/22 09:00:19;;;;;;;0.00;0.00;;;18.30;49.40;;;;;;5074106;28;20409;-74
2021/05/22 09:02:47;;;;;;;0.00;0.00;;;18.50;47.20;;;;;;5055840;28;20041;-74
2021/05/22 09:05:28;;;;;;;0.00;0.00;;;18.70;46.90;;;;;;5074083;28;20040;-74
2021/05/22 09:08:05;;;;;;;0.00;0.00;;;18.70;44.60;;;;;;5073905;28;20048;-75
2021/05/22 09:10:40;;;;;;;0.00;0.00;;;18.80;45.00;;;;;;5073867;28;20048;-74
2021/05/22 09:13:12;;;;;;;0.00;0.00;;;19.00;44.60;;;;;;5073689;28;20127;-74
2021/05/22 09:15:42;;;;;;;0.00;0.00;;;19.10;44.20;;;;;;5073987;28;20133;-74
2021/05/22 09:18:17;;;;;;;0.00;0.00;;;19.30;43.40;;;;;;5073756;28;20066;-72
2021/05/22 09:21:11;;;;;;;0.00;0.00;;;19.30;43.60;;;;;;5080144;28;20488;-74
2021/05/22 09:23:40;;;;;;;0.00;0.00;;;19.50;43.70;;;;;;5091256;28;20048;-74
2021/05/22 09:26:09;;;;;;;0.00;0.00;;;19.70;43.20;;;;;;5093822;28;20149;-74
2021/05/22 09:28:49;;;;;;;0.00;0.00;;;19.70;42.90;;;;;;5093816;28;20075;-75
2021/05/22 09:31:17;;;;;;;0.00;0.00;;;19.80;42.10;;;;;;5093606;28;20048;-74
2021/05/22 09:33:44;;;;;;;0.00;0.00;;;19.90;42.10;;;;;;5093508;28;20089;-74
2021/05/22 09:36:13;;;;;;;0.00;0.00;;;19.90;41.90;;;;;;5093444;28;20056;-74
2021/05/22 09:38:45;;;;;;;0.00;0.00;;;19.70;42.70;;;;;;5093389;28;20095;-74
2021/05/22 09:41:14;;;;;;;0.00;0.00;;;19.50;43.10;;;;;;5093422;28;20069;-74
2021/05/22 09:43:41;;;;;;;0.00;0.00;;;19.30;44.10;;;;;;5093895;28;20048;-74
2021/05/22 09:46:10;;;;;;;0.00;0.00;;;19.40;44.50;;;;;;5093297;28;20506;-74
2021/05/22 09:48:37;;;;;;;0.00;0.00;;;19.70;43.30;;;;;;5093270;28;20059;-74
2021/05/22 09:51:05;;;;;;;0.00;0.00;;;19.90;42.50;;;;;;5093521;28;20458;-74
2021/05/22 09:53:36;;;;;;;0.00;0.00;;;19.90;42.20;;;;;;5093474;28;20062;-74
2021/05/22 09:56:12;;;;;;;0.00;0.00;;;19.50;42.10;;;;;;5093008;28;20086;-74
2021/05/22 09:59:05;;;;;;;0.00;0.00;;;19.00;42.80;;;;;;5093436;28;20480;-73
2021/05/22 10:01:42;;;;;;;0.00;0.00;;;18.50;43.70;;;;;;5089224;28;20048;-74
2021/05/22 10:04:16;;;;;;;0.00;0.00;;;18.10;45.90;;;;;;5092451;28;20048;-74
2021/05/22 10:06:43;;;;;;;0.00;0.00;;;17.70;46.80;;;;;;5093209;28;20055;-73
2021/05/22 10:09:13;;;;;;;0.00;0.00;;;17.30;48.00;;;;;;5092927;28;20092;-74
2021/05/22 10:12:10;;;;;;;0.00;0.00;;;16.90;49.10;;;;;;5064927;28;20459;-73
2021/05/22 10:14:41;;;;;;;0.00;0.00;;;16.50;50.10;;;;;;5052484;28;20077;-74
2021/05/22 10:17:12;;;;;;;0.00;0.00;;;16.40;51.00;;;;;;5052812;28;20128;-73
2021/05/22 10:19:39;;;;;;;0.00;0.00;;;16.20;52.50;;;;;;5052693;28;20052;-73
2021/05/22 10:22:07;;;;;;;0.00;0.00;;;15.80;53.60;;;;;;5070342;28;20577;-74
2021/05/22 10:24:34;;;;;;;0.00;0.00;;;15.70;54.90;;;;;;5072270;28;20392;-73
2021/05/22 10:27:01;;;;;;;0.00;0.00;;;15.60;56.50;;;;;;5072508;28;20084;-73
2021/05/22 10:29:32;;;;;;;0.00;0.00;;;15.60;57.60;;;;;;5071739;28;20044;-73
2021/05/22 10:31:59;;;;;;;0.00;0.00;;;15.60;57.70;;;;;;5072451;28;20049;-74
2021/05/22 10:34:27;;;;;;;0.00;0.00;;;15.70;56.70;;;;;;5054079;28;20625;-73
2021/05/22 10:36:54;;;;;;;0.00;0.00;;;15.60;54.40;;;;;;5071882;28;20057;-74
2021/05/22 10:39:38;;;;;;;0.00;0.00;;;15.50;53.80;;;;;;5071928;28;20466;-74
2021/05/22 10:42:10;;;;;;;0.00;0.00;;;15.50;53.60;;;;;;5072219;28;20048;-74
2021/05/22 10:44:39;;;;;;;0.00;0.00;;;15.40;52.60;;;;;;5072143;28;20093;-73
2021/05/22 10:47:09;;;;;;;0.00;0.00;;;15.50;52.10;;;;;;5072302;28;20048;-73
2021/05/22 10:49:50;;;;;;;0.00;0.00;;;15.70;51.80;;;;;;5072383;28;20049;-74
2021/05/22 10:52:17;;;;;;;;;;;15.80;50.70;;;;;;5072535;28;20135;-73
2021/05/22 10:55:10;;;;;;;0.00;0.00;;;15.90;50.70;;;;;;5071381;28;20413;-74
2021/05/22 10:57:45;;;;;;;0.00;0.00;;;16.00;50.30;;;;;;5072078;28;20519;-74
2021/05/22 11:00:17;;;;;;;0.00;0.00;;;16.20;50.20;;;;;;5072174;28;20140;-74
2021/05/22 11:02:50;;;;;;;0.00;0.00;;;16.30;50.10;;;;;;5071844;28;20515;-73
2021/05/22 11:05:22;;;;;;;0.00;0.00;;;16.40;49.20;;;;;;5071850;28;20052;-74
2021/05/22 11:08:03;;;;;;;0.00;0.00;;;16.60;49.40;;;;;;5071998;28;20186;-74
2021/05/22 11:10:38;;;;;;;0.00;0.00;;;16.70;48.70;;;;;;5071822;28;20051;-73
2021/05/22 11:13:09;;;;;;;0.00;0.00;;;16.70;48.00;;;;;;5071858;28;20593;-74
2021/05/22 11:15:47;;;;;;;0.00;0.00;;;16.70;47.20;;;;;;5071111;28;20048;-74
2021/05/22 11:18:16;;;;;;;0.00;0.00;;;16.70;47.10;;;;;;5071775;28;20044;-73
2021/05/22 11:21:04;;;;;;;0.00;0.00;;;16.60;46.70;;;;;;5071712;28;20610;-73
2021/05/22 11:24:02;;;;;;;0.00;0.00;;;16.60;46.50;;;;;;5071477;28;20060;-74
2021/05/22 11:26:52;;;;;;;0.00;0.00;;;16.50;46.90;;;;;;5091884;28;20048;-74
2021/05/22 11:29:19;;;;;;;0.00;0.00;;;16.50;46.80;;;;;;5092350;28;20048;-74
2021/05/22 11:31:46;;;;;;;0.00;0.00;;;16.60;46.90;;;;;;5092199;28;20692;-73
2021/05/22 11:34:24;;;;;;;0.00;0.00;;;16.60;46.40;;;;;;5091278;28;20060;-73
2021/05/22 11:37:09;;;;;;;0.00;0.00;;;16.60;46.40;;;;;;5090592;28;20052;-73
2021/05/22 11:39:40;;;;;;;0.00;0.00;;;16.60;46.40;;;;;;5091969;28;20126;-74
2021/05/22 11:42:28;;;;;;;0.00;0.00;;;16.50;46.20;;;;;;5092200;28;20052;-74
2021/05/22 11:44:56;;;;;;;0.00;0.00;;;16.40;46.30;;;;;;5088251;28;20778;-75
2021/05/22 11:47:35;;;;;;;0.00;0.00;;;16.30;46.80;;;;;;5072265;28;20131;-75
2021/05/22 11:50:03;;;;;;;0.00;0.00;;;16.20;47.40;;;;;;5071718;28;20136;-76
2021/05/22 11:52:32;;;;;;;0.00;0.00;;;16.20;47.40;;;;;;5071462;28;20075;-75
2021/05/22 11:55:15;;;;;;;0.00;0.00;;;16.10;47.40;;;;;;5069414;28;20059;-75
2021/05/22 11:57:41;;;;;;;0.00;0.00;;;16.10;48.00;;;;;;5072120;28;20143;-74
2021/05/22 12:00:08;;;;;;;0.00;0.00;;;16.20;48.50;;;;;;5072258;28;20052;-76
2021/05/22 12:02:39;;;;;;;0.00;0.00;;;16.30;48.20;;;;;;5071797;28;20513;-75
2021/05/22 12:05:08;;;;;;;0.00;0.00;;;16.30;47.10;;;;;;5071923;28;20502;-74
2021/05/22 12:07:54;;;;;;;0.00;0.00;;;16.30;46.90;;;;;;5071736;28;20048;-76
2021/05/22 12:10:28;;;;;;;0.00;0.00;;;16.20;48.10;;;;;;5071428;28;20049;-74
2021/05/22 12:13:02;;;;;;;0.00;0.00;;;16.10;49.40;;;;;;5071424;28;20222;-75
2021/05/22 12:15:30;;;;;;;0.00;0.00;;;16.10;49.60;;;;;;5070932;28;20052;-74
2021/05/22 12:18:04;;;;;;;0.00;0.00;;;16.10;49.60;;;;;;5071776;28;20051;-74
2021/05/22 12:21:01;;;;;;;0.00;0.00;;;16.10;48.90;;;;;;5076438;28;20047;-74
2021/05/22 12:23:32;;;;;;;0.00;0.00;;;16.20;49.30;;;;;;5091003;28;20047;-74
2021/05/22 12:26:01;;;;;;;0.00;0.00;;;16.30;49.00;;;;;;5090222;28;20522;-74
2021/05/22 12:28:28;;;;;;;0.00;0.00;;;16.30;48.70;;;;;;5094121;28;20389;-75
2021/05/22 12:31:00;;;;;;;0.00;0.00;;;16.40;48.40;;;;;;5094824;28;20430;-74
2021/05/22 12:33:28;;;;;;;0.00;0.00;;;16.50;48.30;;;;;;5094544;28;20047;-74
2021/05/22 12:36:06;;;;;;;0.00;0.00;;;16.50;47.50;;;;;;5087037;28;20048;-74
2021/05/22 12:38:39;;;;;;;0.00;0.00;;;16.50;48.00;;;;;;5074124;28;20040;-74
2021/05/22 12:41:07;;;;;;;0.00;0.00;;;16.50;48.00;;;;;;5074643;28;20053;-75
2021/05/22 12:43:50;;;;;;;0.00;0.00;;;16.50;48.30;;;;;;5074228;28;20044;-74
2021/05/22 12:46:33;;;;;;;0.00;0.00;;;16.40;46.90;;;;;;5074257;28;20098;-74
2021/05/22 12:49:18;;;;;;;0.00;0.00;;;16.20;47.50;;;;;;5074474;28;20048;-74
2021/05/22 12:51:56;;;;;;;0.00;0.00;;;15.90;49.40;;;;;;5074508;28;20040;-74
2021/05/22 12:54:28;;;;;;;0.00;0.00;;;15.60;52.20;;;;;;5074123;28;20157;-74
2021/05/22 12:57:13;;;;;;;0.00;0.00;;;15.30;53.90;;;;;;5074275;28;20044;-74
2021/05/22 12:59:51;;;;;;;0.00;0.00;;;15.00;54.70;;;;;;5074104;28;20527;-74
2021/05/22 13:02:22;;;;;;;0.00;0.00;;;14.80;55.90;;;;;;5073969;28;20055;-74